sensor_id;sensor_type;location;lat;lon;timestamp;temperature;humidity
2955;DHT22;1487;51.470;6.938;2024-03-23T00:53:06;7.00;99.90
2955;DHT22;1487;51.470;6.938;2024-03-23T00:55:31;7.00;99.90
2955;DHT22;1487;51.470;6.938;2024-03-23T00:57:58;7.00;99.90
2955;DHT22;1487;51.470;6.938;2024-03-23T01:00:24;7.00;99.90
2955;DHT22;1487;51.470;6.938;2024-03-23T01:02:51;7.00;99.90
2955;DHT22;1487;51.470;6.938;2024-03-23T01:05:17;7.00;99.90
2955;DHT22;1487;51.470;6.938;2024-03-23T01:07:43;7.00;99.90
2955;DHT22;1487;51.470;6.938;2024-03-23T01:10:10;7.00;99.90
2955;DHT22;1487;51.470;6.938;2024-03-23T01:12:37;7.00;99.90
2955;DHT22;1487;51.470;6.938;2024-03-23T01:15:03;6.90;99.90
2955;DHT22;1487;51.470;6.938;2024-03-23T01:17:30;6.80;99.90
2955;DHT22;1487;51.470;6.938;2024-03-23T01:19:57;6.70;99.90
2955;DHT22;1487;51.470;6.938;2024-03-23T01:22:24;6.70;99.90
2955;DHT22;1487;51.470;6.938;2024-03-23T01:24:50;6.60;99.90
2955;DHT22;1487;51.470;6.938;2024-03-23T01:27:18;6.50;99.90
2955;DHT22;1487;51.470;6.938;2024-03-23T01:29:44;6.50;99.90
2955;DHT22;1487;51.470;6.938;2024-03-23T01:32:11;6.50;99.90
2955;DHT22;1487;51.470;6.938;2024-03-23T01:34:36;6.50;99.90
2955;DHT22;1487;51.470;6.938;2024-03-23T01:37:03;6.50;99.90
2955;DHT22;1487;51.470;6.938;2024-03-23T01:39:31;6.40;99.90
2955;DHT22;1487;51.470;6.938;2024-03-23T01:41:58;6.30;99.90
2955;DHT22;1487;51.470;6.938;2024-03-23T01:44:25;6.30;99.90
2955;DHT22;1487;51.470;6.938;2024-03-23T01:46:52;6.20;99.90
2955;DHT22;1487;51.470;6.938;2024-03-23T01:49:18;6.20;99.90
2955;DHT22;1487;51.470;6.938;2024-03-23T01:51:46;6.10;99.90
2955;DHT22;1487;51.470;6.938;2024-03-23T01:54:12;6.00;99.90
2955;DHT22;1487;51.470;6.938;2024-03-23T01:56:39;5.90;99.90
2955;DHT22;1487;51.470;6.938;2024-03-23T01:59:06;5.90;99.90
2955;DHT22;1487;51.470;6.938;2024-03-23T02:01:35;5.90;99.90
2955;DHT22;1487;51.470;6.938;2024-03-23T02:04:01;6.00;99.90
2955;DHT22;1487;51.470;6.938;2024-03-23T02:06:28;5.90;99.90
2955;DHT22;1487;51.470;6.938;2024-03-23T02:08:54;5.90;99.90
2955;DHT22;1487;51.470;6.938;2024-03-23T02:11:22;5.90;99.90
2955;DHT22;1487;51.470;6.938;2024-03-23T02:13:47;5.90;99.90
2955;DHT22;1487;51.470;6.938;2024-03-23T02:16:14;5.80;99.90
2955;DHT22;1487;51.470;6.938;2024-03-23T02:18:41;5.80;99.90
2955;DHT22;1487;51.470;6.938;2024-03-23T02:21:08;5.80;99.90
2955;DHT22;1487;51.470;6.938;2024-03-23T02:23:35;5.90;99.90
2955;DHT22;1487;51.470;6.938;2024-03-23T02:26:02;5.90;99.90
2955;DHT22;1487;51.470;6.938;2024-03-23T02:28:28;5.90;99.90
2955;DHT22;1487;51.470;6.938;2024-03-23T02:30:55;5.90;99.90
2955;DHT22;1487;51.470;6.938;2024-03-23T02:33:21;6.00;99.90
2955;DHT22;1487;51.470;6.938;2024-03-23T02:35:48;6.00;99.90
2955;DHT22;1487;51.470;6.938;2024-03-23T02:38:13;6.00;99.90
2955;DHT22;1487;51.470;6.938;2024-03-23T02:40:42;5.90;99.90
2955;DHT22;1487;51.470;6.938;2024-03-23T02:43:09;6.00;99.90
2955;DHT22;1487;51.470;6.938;2024-03-23T02:45:36;6.00;99.90
2955;DHT22;1487;51.470;6.938;2024-03-23T02:48:02;6.00;99.90
2955;DHT22;1487;51.470;6.938;2024-03-23T02:50:30;6.10;99.90
2955;DHT22;1487;51.470;6.938;2024-03-23T02:52:56;6.10;99.90
2955;DHT22;1487;51.470;6.938;2024-03-23T02:55:23;6.10;99.90
2955;DHT22;1487;51.470;6.938;2024-03-23T02:57:50;6.10;99.90
2955;DHT22;1487;51.470;6.938;2024-03-23T03:00:18;6.10;99.90
2955;DHT22;1487;51.470;6.938;2024-03-23T03:02:44;6.10;99.90
2955;DHT22;1487;51.470;6.938;2024-03-23T03:05:11;6.10;99.90
2955;DHT22;1487;51.470;6.938;2024-03-23T03:07:38;6.20;99.90
2955;DHT22;1487;51.470;6.938;2024-03-23T03:10:06;6.10;99.90
2955;DHT22;1487;51.470;6.938;2024-03-23T03:12:35;6.10;99.90
2955;DHT22;1487;51.470;6.938;2024-03-23T03:15:05;6.10;99.90
2955;DHT22;1487;51.470;6.938;2024-03-23T03:17:31;6.00;99.90
2955;DHT22;1487;51.470;6.938;2024-03-23T03:19:58;5.90;99.90
2955;DHT22;1487;51.470;6.938;2024-03-23T03:22:23;5.90;99.90
2955;DHT22;1487;51.470;6.938;2024-03-23T03:24:50;5.90;99.90
2955;DHT22;1487;51.470;6.938;2024-03-23T03:27:16;5.90;99.90
2955;DHT22;1487;51.470;6.938;2024-03-23T03:29:43;5.90;99.90
2955;DHT22;1487;51.470;6.938;2024-03-23T03:32:10;5.80;99.90
2955;DHT22;1487;51.470;6.938;2024-03-23T03:34:37;5.90;99.90
2955;DHT22;1487;51.470;6.938;2024-03-23T03:37:03;5.90;99.90
2955;DHT22;1487;51.470;6.938;2024-03-23T03:39:30;5.90;99.90
2955;DHT22;1487;51.470;6.938;2024-03-23T03:41:56;5.90;99.90
2955;DHT22;1487;51.470;6.938;2024-03-23T03:44:23;5.90;99.90
2955;DHT22;1487;51.470;6.938;2024-03-23T03:46:49;5.90;99.90
2955;DHT22;1487;51.470;6.938;2024-03-23T03:49:17;5.90;99.90
2955;DHT22;1487;51.470;6.938;2024-03-23T03:51:43;5.90;99.90
2955;DHT22;1487;51.470;6.938;2024-03-23T03:54:09;5.90;99.90
2955;DHT22;1487;51.470;6.938;2024-03-23T03:56:35;6.00;99.90
2955;DHT22;1487;51.470;6.938;2024-03-23T03:59:02;5.90;99.90
2955;DHT22;1487;51.470;6.938;2024-03-23T04:01:28;5.80;99.90
2955;DHT22;1487;51.470;6.938;2024-03-23T04:03:54;5.80;99.90
2955;DHT22;1487;51.470;6.938;2024-03-23T04:06:25;5.70;99.90
2955;DHT22;1487;51.470;6.938;2024-03-23T04:08:52;5.70;99.90
2955;DHT22;1487;51.470;6.938;2024-03-23T04:11:18;5.70;99.90
2955;DHT22;1487;51.470;6.938;2024-03-23T04:13:45;5.80;99.90
2955;DHT22;1487;51.470;6.938;2024-03-23T04:16:10;5.80;99.90
2955;DHT22;1487;51.470;6.938;2024-03-23T04:18:37;5.80;99.90
2955;DHT22;1487;51.470;6.938;2024-03-23T04:21:03;5.90;99.90
2955;DHT22;1487;51.470;6.938;2024-03-23T04:23:31;5.70;99.90
2955;DHT22;1487;51.470;6.938;2024-03-23T04:26:03;5.70;99.90
2955;DHT22;1487;51.470;6.938;2024-03-23T04:28:30;5.70;99.90
2955;DHT22;1487;51.470;6.938;2024-03-23T04:30:57;5.60;99.90
2955;DHT22;1487;51.470;6.938;2024-03-23T04:33:23;5.60;99.90
2955;DHT22;1487;51.470;6.938;2024-03-23T04:35:50;5.60;99.90
2955;DHT22;1487;51.470;6.938;2024-03-23T04:38:16;5.50;99.90
2955;DHT22;1487;51.470;6.938;2024-03-23T04:40:45;5.60;99.90
2955;DHT22;1487;51.470;6.938;2024-03-23T04:43:11;5.60;99.90
2955;DHT22;1487;51.470;6.938;2024-03-23T04:45:39;5.60;99.90
2955;DHT22;1487;51.470;6.938;2024-03-23T04:48:06;5.50;99.90
2955;DHT22;1487;51.470;6.938;2024-03-23T04:50:33;5.50;99.90
2955;DHT22;1487;51.470;6.938;2024-03-23T04:52:59;5.50;99.90
2955;DHT22;1487;51.470;6.938;2024-03-23T04:55:25;5.50;99.90
2955;DHT22;1487;51.470;6.938;2024-03-23T04:57:53;5.50;99.90
2955;DHT22;1487;51.470;6.938;2024-03-23T05:00:19;5.60;99.90
2955;DHT22;1487;51.470;6.938;2024-03-23T05:02:46;5.60;99.90
2955;DHT22;1487;51.470;6.938;2024-03-23T05:05:12;5.50;99.90
2955;DHT22;1487;51.470;6.938;2024-03-23T05:07:39;5.60;99.90
2955;DHT22;1487;51.470;6.938;2024-03-23T05:10:06;5.60;99.90
2955;DHT22;1487;51.470;6.938;2024-03-23T05:12:35;5.60;99.90
2955;DHT22;1487;51.470;6.938;2024-03-23T05:15:03;5.60;99.90
2955;DHT22;1487;51.470;6.938;2024-03-23T05:17:30;5.60;99.90
2955;DHT22;1487;51.470;6.938;2024-03-23T05:19:57;5.70;99.90
2955;DHT22;1487;51.470;6.938;2024-03-23T05:22:24;5.70;99.90
2955;DHT22;1487;51.470;6.938;2024-03-23T05:24:49;5.70;99.90
2955;DHT22;1487;51.470;6.938;2024-03-23T05:27:16;5.70;99.90
2955;DHT22;1487;51.470;6.938;2024-03-23T05:29:42;5.70;99.90
2955;DHT22;1487;51.470;6.938;2024-03-23T05:32:10;5.70;99.90
2955;DHT22;1487;51.470;6.938;2024-03-23T05:34:36;5.70;99.90
2955;DHT22;1487;51.470;6.938;2024-03-23T05:37:03;5.70;99.90
2955;DHT22;1487;51.470;6.938;2024-03-23T05:39:29;5.70;99.90
2955;DHT22;1487;51.470;6.938;2024-03-23T05:41:55;5.70;99.90
2955;DHT22;1487;51.470;6.938;2024-03-23T05:44:22;5.80;99.90
2955;DHT22;1487;51.470;6.938;2024-03-23T05:46:49;5.70;99.90
2955;DHT22;1487;51.470;6.938;2024-03-23T05:49:16;5.80;99.90
2955;DHT22;1487;51.470;6.938;2024-03-23T05:51:43;5.80;99.90
2955;DHT22;1487;51.470;6.938;2024-03-23T05:54:09;5.80;99.90
2955;DHT22;1487;51.470;6.938;2024-03-23T05:56:37;5.80;99.90
2955;DHT22;1487;51.470;6.938;2024-03-23T05:59:03;5.80;99.90
2955;DHT22;1487;51.470;6.938;2024-03-23T06:01:31;5.90;99.90
2955;DHT22;1487;51.470;6.938;2024-03-23T06:03:58;5.90;99.90
2955;DHT22;1487;51.470;6.938;2024-03-23T06:06:28;5.90;99.90
2955;DHT22;1487;51.470;6.938;2024-03-23T06:08:57;5.90;99.90
2955;DHT22;1487;51.470;6.938;2024-03-23T06:11:24;5.90;99.90
2955;DHT22;1487;51.470;6.938;2024-03-23T06:13:52;5.90;99.90
2955;DHT22;1487;51.470;6.938;2024-03-23T06:16:20;5.80;99.90
2955;DHT22;1487;51.470;6.938;2024-03-23T06:18:50;5.80;99.90
2955;DHT22;1487;51.470;6.938;2024-03-23T06:21:17;5.70;99.90
2955;DHT22;1487;51.470;6.938;2024-03-23T06:23:45;5.70;99.90
2955;DHT22;1487;51.470;6.938;2024-03-23T06:26:16;5.70;99.90
2955;DHT22;1487;51.470;6.938;2024-03-23T06:28:42;5.60;99.90
2955;DHT22;1487;51.470;6.938;2024-03-23T06:31:09;5.60;99.90
2955;DHT22;1487;51.470;6.938;2024-03-23T06:33:36;5.60;99.90
2955;DHT22;1487;51.470;6.938;2024-03-23T06:36:03;5.80;99.90
2955;DHT22;1487;51.470;6.938;2024-03-23T06:38:29;5.90;99.90
2955;DHT22;1487;51.470;6.938;2024-03-23T06:40:57;5.90;99.90
2955;DHT22;1487;51.470;6.938;2024-03-23T06:43:23;6.00;99.90
2955;DHT22;1487;51.470;6.938;2024-03-23T06:45:53;6.10;99.90
2955;DHT22;1487;51.470;6.938;2024-03-23T06:48:19;6.20;99.90
2955;DHT22;1487;51.470;6.938;2024-03-23T06:50:46;6.30;99.90
2955;DHT22;1487;51.470;6.938;2024-03-23T06:53:12;6.50;99.90
2955;DHT22;1487;51.470;6.938;2024-03-23T06:55:39;6.60;99.90
2955;DHT22;1487;51.470;6.938;2024-03-23T06:58:06;6.80;99.90
2955;DHT22;1487;51.470;6.938;2024-03-23T07:00:33;7.10;99.90
2955;DHT22;1487;51.470;6.938;2024-03-23T07:03:01;7.30;99.90
2955;DHT22;1487;51.470;6.938;2024-03-23T07:05:29;7.60;99.90
2955;DHT22;1487;51.470;6.938;2024-03-23T07:07:55;7.90;99.90
2955;DHT22;1487;51.470;6.938;2024-03-23T07:10:22;8.10;99.90
2955;DHT22;1487;51.470;6.938;2024-03-23T07:12:48;8.50;99.90
2955;DHT22;1487;51.470;6.938;2024-03-23T07:15:16;8.50;99.90
2955;DHT22;1487;51.470;6.938;2024-03-23T07:17:42;8.60;99.90
2955;DHT22;1487;51.470;6.938;2024-03-23T07:20:10;8.60;99.90
2955;DHT22;1487;51.470;6.938;2024-03-23T07:22:36;8.50;99.90
2955;DHT22;1487;51.470;6.938;2024-03-23T07:25:04;8.40;99.90
2955;DHT22;1487;51.470;6.938;2024-03-23T07:27:30;8.40;99.90
2955;DHT22;1487;51.470;6.938;2024-03-23T07:29:57;8.50;99.90
2955;DHT22;1487;51.470;6.938;2024-03-23T07:32:24;8.70;99.90
2955;DHT22;1487;51.470;6.938;2024-03-23T07:34:52;9.20;99.90
2955;DHT22;1487;51.470;6.938;2024-03-23T07:37:18;9.70;99.90
2955;DHT22;1487;51.470;6.938;2024-03-23T07:39:46;10.00;99.90
2955;DHT22;1487;51.470;6.938;2024-03-23T07:42:11;10.40;99.90
2955;DHT22;1487;51.470;6.938;2024-03-23T07:44:38;10.80;99.90
2955;DHT22;1487;51.470;6.938;2024-03-23T07:47:04;11.10;99.90
2955;DHT22;1487;51.470;6.938;2024-03-23T07:49:32;11.10;99.90
2955;DHT22;1487;51.470;6.938;2024-03-23T07:51:58;11.20;99.90
2955;DHT22;1487;51.470;6.938;2024-03-23T07:54:25;11.40;99.90
2955;DHT22;1487;51.470;6.938;2024-03-23T07:56:51;11.90;99.90
2955;DHT22;1487;51.470;6.938;2024-03-23T07:59:18;12.40;99.90
2955;DHT22;1487;51.470;6.938;2024-03-23T08:01:45;12.10;99.90
2955;DHT22;1487;51.470;6.938;2024-03-23T08:04:12;12.00;99.90
2955;DHT22;1487;51.470;6.938;2024-03-23T08:06:40;12.20;99.90
2955;DHT22;1487;51.470;6.938;2024-03-23T08:09:08;11.50;99.90
2955;DHT22;1487;51.470;6.938;2024-03-23T08:11:33;11.30;99.90
2955;DHT22;1487;51.470;6.938;2024-03-23T08:14:01;11.60;99.90
2955;DHT22;1487;51.470;6.938;2024-03-23T08:16:27;12.00;99.90
2955;DHT22;1487;51.470;6.938;2024-03-23T08:18:54;12.10;99.90
2955;DHT22;1487;51.470;6.938;2024-03-23T08:21:21;12.10;99.90
2955;DHT22;1487;51.470;6.938;2024-03-23T08:23:50;12.30;99.90
2955;DHT22;1487;51.470;6.938;2024-03-23T08:26:16;12.70;99.90
2955;DHT22;1487;51.470;6.938;2024-03-23T08:28:44;12.20;99.90
2955;DHT22;1487;51.470;6.938;2024-03-23T08:31:11;11.70;99.90
2955;DHT22;1487;51.470;6.938;2024-03-23T08:33:38;12.00;99.90
2955;DHT22;1487;51.470;6.938;2024-03-23T08:36:06;12.80;99.90
2955;DHT22;1487;51.470;6.938;2024-03-23T08:38:34;13.10;99.90
2955;DHT22;1487;51.470;6.938;2024-03-23T08:41:03;13.00;99.90
2955;DHT22;1487;51.470;6.938;2024-03-23T08:43:32;12.40;99.90
2955;DHT22;1487;51.470;6.938;2024-03-23T08:46:04;12.20;99.90
2955;DHT22;1487;51.470;6.938;2024-03-23T08:48:31;13.00;99.90
2955;DHT22;1487;51.470;6.938;2024-03-23T08:51:04;13.10;99.90
2955;DHT22;1487;51.470;6.938;2024-03-23T08:53:31;12.20;99.90
2955;DHT22;1487;51.470;6.938;2024-03-23T08:55:58;11.40;99.90
2955;DHT22;1487;51.470;6.938;2024-03-23T08:58:29;10.60;99.90
2955;DHT22;1487;51.470;6.938;2024-03-23T09:01:00;9.90;99.90
2955;DHT22;1487;51.470;6.938;2024-03-23T09:03:30;9.50;99.90
2955;DHT22;1487;51.470;6.938;2024-03-23T09:05:56;9.30;99.90
2955;DHT22;1487;51.470;6.938;2024-03-23T09:08:23;9.20;99.90
2955;DHT22;1487;51.470;6.938;2024-03-23T09:10:49;9.00;99.90
2955;DHT22;1487;51.470;6.938;2024-03-23T09:13:16;9.00;99.90
2955;DHT22;1487;51.470;6.938;2024-03-23T09:15:48;9.40;99.90
2955;DHT22;1487;51.470;6.938;2024-03-23T09:18:15;10.00;99.90
2955;DHT22;1487;51.470;6.938;2024-03-23T09:20:41;10.50;99.90
2955;DHT22;1487;51.470;6.938;2024-03-23T09:23:09;11.40;99.90
2955;DHT22;1487;51.470;6.938;2024-03-23T09:25:36;12.50;99.90
2955;DHT22;1487;51.470;6.938;2024-03-23T09:28:04;13.10;99.90
2955;DHT22;1487;51.470;6.938;2024-03-23T09:30:31;13.80;99.90
2955;DHT22;1487;51.470;6.938;2024-03-23T09:32:59;14.40;99.90
2955;DHT22;1487;51.470;6.938;2024-03-23T09:35:26;14.80;99.90
2955;DHT22;1487;51.470;6.938;2024-03-23T09:37:53;14.80;99.90
2955;DHT22;1487;51.470;6.938;2024-03-23T09:40:19;15.20;99.90
2955;DHT22;1487;51.470;6.938;2024-03-23T09:42:49;14.70;99.90
2955;DHT22;1487;51.470;6.938;2024-03-23T09:45:19;14.30;99.90
2955;DHT22;1487;51.470;6.938;2024-03-23T09:47:47;14.00;99.90
2955;DHT22;1487;51.470;6.938;2024-03-23T09:50:14;13.60;99.90
2955;DHT22;1487;51.470;6.938;2024-03-23T09:52:41;12.60;99.90
2955;DHT22;1487;51.470;6.938;2024-03-23T09:55:08;12.30;99.90
2955;DHT22;1487;51.470;6.938;2024-03-23T09:57:35;12.60;99.90
2955;DHT22;1487;51.470;6.938;2024-03-23T10:00:01;12.70;99.90
2955;DHT22;1487;51.470;6.938;2024-03-23T10:02:30;12.50;99.90
2955;DHT22;1487;51.470;6.938;2024-03-23T10:04:57;12.50;99.90
2955;DHT22;1487;51.470;6.938;2024-03-23T10:07:25;13.40;99.90
2955;DHT22;1487;51.470;6.938;2024-03-23T10:09:53;13.80;99.90
2955;DHT22;1487;51.470;6.938;2024-03-23T10:12:20;13.50;99.90
2955;DHT22;1487;51.470;6.938;2024-03-23T10:14:46;13.60;99.90
2955;DHT22;1487;51.470;6.938;2024-03-23T10:17:15;13.70;99.90
2955;DHT22;1487;51.470;6.938;2024-03-23T10:19:43;14.40;99.90
2955;DHT22;1487;51.470;6.938;2024-03-23T10:22:14;13.80;99.90
2955;DHT22;1487;51.470;6.938;2024-03-23T10:24:41;14.20;99.90
2955;DHT22;1487;51.470;6.938;2024-03-23T10:27:08;15.40;99.10
2955;DHT22;1487;51.470;6.938;2024-03-23T10:29:34;16.00;93.50
2955;DHT22;1487;51.470;6.938;2024-03-23T10:32:09;16.20;92.70
2955;DHT22;1487;51.470;6.938;2024-03-23T10:34:36;14.80;90.50
2955;DHT22;1487;51.470;6.938;2024-03-23T10:37:05;13.30;93.70
2955;DHT22;1487;51.470;6.938;2024-03-23T10:39:33;12.80;96.60
2955;DHT22;1487;51.470;6.938;2024-03-23T10:42:03;12.50;98.40
2955;DHT22;1487;51.470;6.938;2024-03-23T10:44:30;12.20;99.90
2955;DHT22;1487;51.470;6.938;2024-03-23T10:46:58;11.40;99.90
2955;DHT22;1487;51.470;6.938;2024-03-23T10:49:28;9.90;99.90
2955;DHT22;1487;51.470;6.938;2024-03-23T10:51:58;8.30;99.90
2955;DHT22;1487;51.470;6.938;2024-03-23T10:54:26;7.50;99.90
2955;DHT22;1487;51.470;6.938;2024-03-23T10:57:03;6.90;99.90
2955;DHT22;1487;51.470;6.938;2024-03-23T10:59:30;6.50;99.90
2955;DHT22;1487;51.470;6.938;2024-03-23T11:01:58;6.30;99.90
2955;DHT22;1487;51.470;6.938;2024-03-23T11:04:32;6.10;99.90
2955;DHT22;1487;51.470;6.938;2024-03-23T11:06:59;6.00;99.90
2955;DHT22;1487;51.470;6.938;2024-03-23T11:09:41;6.10;99.90
2955;DHT22;1487;51.470;6.938;2024-03-23T11:12:31;6.40;99.90
2955;DHT22;1487;51.470;6.938;2024-03-23T11:15:01;7.40;99.90
2955;DHT22;1487;51.470;6.938;2024-03-23T11:17:28;8.40;99.90
2955;DHT22;1487;51.470;6.938;2024-03-23T11:19:58;9.40;99.90
2955;DHT22;1487;51.470;6.938;2024-03-23T11:22:41;10.30;99.90
2955;DHT22;1487;51.470;6.938;2024-03-23T11:25:13;11.50;99.90
2955;DHT22;1487;51.470;6.938;2024-03-23T11:27:40;11.40;99.90
2955;DHT22;1487;51.470;6.938;2024-03-23T11:30:12;11.60;99.90
2955;DHT22;1487;51.470;6.938;2024-03-23T11:32:38;12.30;99.90
2955;DHT22;1487;51.470;6.938;2024-03-23T11:35:06;12.60;99.90
2955;DHT22;1487;51.470;6.938;2024-03-23T11:37:32;13.30;99.90
2955;DHT22;1487;51.470;6.938;2024-03-23T11:39:58;14.00;99.90
2955;DHT22;1487;51.470;6.938;2024-03-23T11:42:25;13.90;99.90
2955;DHT22;1487;51.470;6.938;2024-03-23T11:44:53;13.80;99.90
2955;DHT22;1487;51.470;6.938;2024-03-23T11:47:20;14.10;99.90
2955;DHT22;1487;51.470;6.938;2024-03-23T11:49:48;14.60;99.90
2955;DHT22;1487;51.470;6.938;2024-03-23T11:52:16;15.20;99.90
2955;DHT22;1487;51.470;6.938;2024-03-23T11:54:43;15.70;99.90
2955;DHT22;1487;51.470;6.938;2024-03-23T11:57:09;15.20;99.90
2955;DHT22;1487;51.470;6.938;2024-03-23T11:59:37;14.90;99.90
2955;DHT22;1487;51.470;6.938;2024-03-23T12:02:08;14.60;98.80
2955;DHT22;1487;51.470;6.938;2024-03-23T12:04:36;13.40;99.90
2955;DHT22;1487;51.470;6.938;2024-03-23T12:07:12;12.60;99.90
2955;DHT22;1487;51.470;6.938;2024-03-23T12:09:39;11.60;99.90
2955;DHT22;1487;51.470;6.938;2024-03-23T12:12:10;11.40;99.90
2955;DHT22;1487;51.470;6.938;2024-03-23T12:14:37;10.80;99.90
2955;DHT22;1487;51.470;6.938;2024-03-23T12:17:23;10.20;99.90
2955;DHT22;1487;51.470;6.938;2024-03-23T12:19:49;9.80;99.90
2955;DHT22;1487;51.470;6.938;2024-03-23T12:22:20;9.70;99.90
2955;DHT22;1487;51.470;6.938;2024-03-23T12:24:48;9.60;99.90
2955;DHT22;1487;51.470;6.938;2024-03-23T12:27:14;10.10;99.90
2955;DHT22;1487;51.470;6.938;2024-03-23T12:29:42;11.10;99.90
2955;DHT22;1487;51.470;6.938;2024-03-23T12:32:09;11.50;99.90
2955;DHT22;1487;51.470;6.938;2024-03-23T12:34:37;11.30;99.90
2955;DHT22;1487;51.470;6.938;2024-03-23T12:37:04;11.40;99.90
2955;DHT22;1487;51.470;6.938;2024-03-23T12:39:31;12.00;99.90
2955;DHT22;1487;51.470;6.938;2024-03-23T12:41:57;11.60;99.90
2955;DHT22;1487;51.470;6.938;2024-03-23T12:44:24;10.70;99.90
2955;DHT22;1487;51.470;6.938;2024-03-23T12:46:49;10.10;99.90
2955;DHT22;1487;51.470;6.938;2024-03-23T12:49:16;9.70;99.90
2955;DHT22;1487;51.470;6.938;2024-03-23T12:51:49;9.70;99.90
2955;DHT22;1487;51.470;6.938;2024-03-23T12:54:21;10.30;99.90
2955;DHT22;1487;51.470;6.938;2024-03-23T12:56:47;10.20;99.90
2955;DHT22;1487;51.470;6.938;2024-03-23T12:59:14;10.10;99.90
2955;DHT22;1487;51.470;6.938;2024-03-23T13:01:40;9.50;99.90
2955;DHT22;1487;51.470;6.938;2024-03-23T13:04:07;9.20;99.90
2955;DHT22;1487;51.470;6.938;2024-03-23T13:06:33;8.80;99.90
2955;DHT22;1487;51.470;6.938;2024-03-23T13:09:01;8.50;99.90
2955;DHT22;1487;51.470;6.938;2024-03-23T13:11:31;8.00;99.90
2955;DHT22;1487;51.470;6.938;2024-03-23T13:13:58;7.90;99.90
2955;DHT22;1487;51.470;6.938;2024-03-23T13:16:24;8.40;99.90
2955;DHT22;1487;51.470;6.938;2024-03-23T13:18:51;8.80;99.90
2955;DHT22;1487;51.470;6.938;2024-03-23T13:21:17;8.30;99.90
2955;DHT22;1487;51.470;6.938;2024-03-23T13:23:46;7.80;99.90
2955;DHT22;1487;51.470;6.938;2024-03-23T13:26:16;7.40;99.90
2955;DHT22;1487;51.470;6.938;2024-03-23T13:28:43;7.20;99.90
2955;DHT22;1487;51.470;6.938;2024-03-23T13:31:10;6.90;99.90
2955;DHT22;1487;51.470;6.938;2024-03-23T13:33:36;6.80;99.90
2955;DHT22;1487;51.470;6.938;2024-03-23T13:36:03;6.90;99.90
2955;DHT22;1487;51.470;6.938;2024-03-23T13:38:30;7.30;99.90
2955;DHT22;1487;51.470;6.938;2024-03-23T13:40:57;7.80;99.90
2955;DHT22;1487;51.470;6.938;2024-03-23T13:43:25;8.30;99.90
2955;DHT22;1487;51.470;6.938;2024-03-23T13:45:56;8.70;99.90
2955;DHT22;1487;51.470;6.938;2024-03-23T13:48:24;8.90;99.90
2955;DHT22;1487;51.470;6.938;2024-03-23T13:50:57;8.80;99.90
2955;DHT22;1487;51.470;6.938;2024-03-23T13:53:24;8.60;99.90
2955;DHT22;1487;51.470;6.938;2024-03-23T13:55:52;8.30;99.90
2955;DHT22;1487;51.470;6.938;2024-03-23T13:58:19;8.40;99.90
2955;DHT22;1487;51.470;6.938;2024-03-23T14:00:47;9.20;99.90
2955;DHT22;1487;51.470;6.938;2024-03-23T14:03:14;10.40;99.90
2955;DHT22;1487;51.470;6.938;2024-03-23T14:05:41;11.60;99.90
2955;DHT22;1487;51.470;6.938;2024-03-23T14:08:07;12.70;99.90
2955;DHT22;1487;51.470;6.938;2024-03-23T14:10:35;13.60;99.90
2955;DHT22;1487;51.470;6.938;2024-03-23T14:13:01;12.90;99.90
2955;DHT22;1487;51.470;6.938;2024-03-23T14:15:30;12.90;99.90
2955;DHT22;1487;51.470;6.938;2024-03-23T14:17:58;12.90;98.40
2955;DHT22;1487;51.470;6.938;2024-03-23T14:20:25;13.30;99.30
2955;DHT22;1487;51.470;6.938;2024-03-23T14:22:51;13.10;96.60
2955;DHT22;1487;51.470;6.938;2024-03-23T14:25:18;12.00;97.30
2955;DHT22;1487;51.470;6.938;2024-03-23T14:27:45;11.20;99.90
2955;DHT22;1487;51.470;6.938;2024-03-23T14:30:14;11.20;99.90
2955;DHT22;1487;51.470;6.938;2024-03-23T14:32:40;10.80;99.90
2955;DHT22;1487;51.470;6.938;2024-03-23T14:35:08;10.40;99.90
2955;DHT22;1487;51.470;6.938;2024-03-23T14:37:36;10.10;99.90
2955;DHT22;1487;51.470;6.938;2024-03-23T14:40:04;10.00;99.90
2955;DHT22;1487;51.470;6.938;2024-03-23T14:42:30;10.40;99.90
2955;DHT22;1487;51.470;6.938;2024-03-23T14:44:58;11.60;99.90
2955;DHT22;1487;51.470;6.938;2024-03-23T14:47:24;12.10;99.90
2955;DHT22;1487;51.470;6.938;2024-03-23T14:49:51;12.40;99.90
2955;DHT22;1487;51.470;6.938;2024-03-23T14:52:18;12.60;99.90
2955;DHT22;1487;51.470;6.938;2024-03-23T14:54:46;12.00;99.90
2955;DHT22;1487;51.470;6.938;2024-03-23T14:57:12;11.30;99.90
2955;DHT22;1487;51.470;6.938;2024-03-23T14:59:39;10.80;99.90
2955;DHT22;1487;51.470;6.938;2024-03-23T15:02:06;10.30;99.90
2955;DHT22;1487;51.470;6.938;2024-03-23T15:04:33;9.90;99.90
2955;DHT22;1487;51.470;6.938;2024-03-23T15:06:59;9.70;99.90
2955;DHT22;1487;51.470;6.938;2024-03-23T15:09:29;9.50;99.90
2955;DHT22;1487;51.470;6.938;2024-03-23T15:11:54;9.30;99.90
2955;DHT22;1487;51.470;6.938;2024-03-23T15:14:21;9.30;99.90
2955;DHT22;1487;51.470;6.938;2024-03-23T15:16:47;10.00;99.90
2955;DHT22;1487;51.470;6.938;2024-03-23T15:19:14;10.40;99.90
2955;DHT22;1487;51.470;6.938;2024-03-23T15:21:40;10.70;99.90
2955;DHT22;1487;51.470;6.938;2024-03-23T15:24:08;10.50;99.90
2955;DHT22;1487;51.470;6.938;2024-03-23T15:26:37;10.40;99.90
2955;DHT22;1487;51.470;6.938;2024-03-23T15:29:04;10.30;99.90
2955;DHT22;1487;51.470;6.938;2024-03-23T15:31:37;10.10;99.90
2955;DHT22;1487;51.470;6.938;2024-03-23T15:34:04;9.70;99.90
2955;DHT22;1487;51.470;6.938;2024-03-23T15:36:30;9.50;99.90
2955;DHT22;1487;51.470;6.938;2024-03-23T15:38:57;9.40;99.90
2955;DHT22;1487;51.470;6.938;2024-03-23T15:41:23;9.20;99.90
2955;DHT22;1487;51.470;6.938;2024-03-23T15:43:52;9.30;99.90
2955;DHT22;1487;51.470;6.938;2024-03-23T15:46:18;9.40;99.90
2955;DHT22;1487;51.470;6.938;2024-03-23T15:48:45;9.30;99.90
2955;DHT22;1487;51.470;6.938;2024-03-23T15:51:12;9.30;99.90
2955;DHT22;1487;51.470;6.938;2024-03-23T15:53:40;9.10;99.90
2955;DHT22;1487;51.470;6.938;2024-03-23T15:56:07;9.00;99.90
2955;DHT22;1487;51.470;6.938;2024-03-23T15:58:34;9.00;99.90
2955;DHT22;1487;51.470;6.938;2024-03-23T16:01:02;8.90;99.90
2955;DHT22;1487;51.470;6.938;2024-03-23T16:03:30;8.90;99.90
2955;DHT22;1487;51.470;6.938;2024-03-23T16:05:57;8.80;99.90
2955;DHT22;1487;51.470;6.938;2024-03-23T16:08:25;8.70;99.90
2955;DHT22;1487;51.470;6.938;2024-03-23T16:10:51;8.60;99.90
2955;DHT22;1487;51.470;6.938;2024-03-23T16:13:18;8.20;99.90
2955;DHT22;1487;51.470;6.938;2024-03-23T16:15:44;8.00;99.90
2955;DHT22;1487;51.470;6.938;2024-03-23T16:18:13;8.00;99.90
2955;DHT22;1487;51.470;6.938;2024-03-23T16:20:38;8.10;99.90
2955;DHT22;1487;51.470;6.938;2024-03-23T16:23:05;8.10;99.90
2955;DHT22;1487;51.470;6.938;2024-03-23T16:25:32;8.00;99.90
2955;DHT22;1487;51.470;6.938;2024-03-23T16:27:59;8.10;99.90
2955;DHT22;1487;51.470;6.938;2024-03-23T16:30:25;8.00;99.90
2955;DHT22;1487;51.470;6.938;2024-03-23T16:32:53;8.10;99.90
2955;DHT22;1487;51.470;6.938;2024-03-23T16:35:20;8.00;99.90
2955;DHT22;1487;51.470;6.938;2024-03-23T16:37:47;8.00;99.90
2955;DHT22;1487;51.470;6.938;2024-03-23T16:40:13;7.90;99.90
2955;DHT22;1487;51.470;6.938;2024-03-23T16:42:40;7.80;99.90
2955;DHT22;1487;51.470;6.938;2024-03-23T16:45:07;7.70;99.90
2955;DHT22;1487;51.470;6.938;2024-03-23T16:47:34;7.60;99.90
2955;DHT22;1487;51.470;6.938;2024-03-23T16:50:00;7.50;99.90
2955;DHT22;1487;51.470;6.938;2024-03-23T16:52:28;7.40;99.90
2955;DHT22;1487;51.470;6.938;2024-03-23T16:54:56;7.30;99.90
2955;DHT22;1487;51.470;6.938;2024-03-23T16:57:22;7.30;99.90
2955;DHT22;1487;51.470;6.938;2024-03-23T16:59:48;7.30;99.90
2955;DHT22;1487;51.470;6.938;2024-03-23T17:02:15;7.40;99.90
2955;DHT22;1487;51.470;6.938;2024-03-23T17:04:41;7.40;99.90